Time;durP1;ratioP1;P1;durP2;ratioP2;P2;SDS_P1;SDS_P2;PMS_P1;PMS_P2;Temp;Humidity;BMP_temperature;BMP_pressure;BME280_temperature;BME280_humidity;BME280_pressure;Samples;Min_cycle;Max_cycle;Signal;HPM_P1;HPM_P2
2022/06/27 00:01:12;;;;;;;8.77;3.75;;;;;;;23.29;46.64;99299.09;8426269;28;20526;-81
2022/06/27 00:05:13;;;;;;;7.75;3.95;;;;;;;23.24;46.72;99302.25;8372778;28;20173;-81
2022/06/27 00:09:14;;;;;;;7.05;4.32;;;;;;;23.19;46.88;99295.13;8426116;28;20131;-81
2022/06/27 00:13:15;;;;;;;7.40;3.72;;;;;;;23.13;46.89;99303.00;8439752;28;20048;-80
2022/06/27 00:17:16;;;;;;;9.32;4.30;;;;;;;23.07;47.07;99301.78;8465169;27;20395;-80
2022/06/27 00:21:17;;;;;;;10.75;4.50;;;;;;;23.03;47.43;99309.25;8464234;28;20067;-79
2022/06/27 00:25:18;;;;;;;7.72;4.50;;;;;;;22.96;47.62;99303.69;8458074;28;20414;-81
2022/06/27 00:29:19;;;;;;;7.28;4.18;;;;;;;22.91;47.83;99306.81;8469719;27;20050;-81
2022/06/27 00:33:20;;;;;;;13.30;5.75;;;;;;;22.85;48.09;99308.34;8459117;27;20039;-79
2022/06/27 00:37:21;;;;;;;11.02;4.40;;;;;;;22.78;48.57;99308.34;8455763;27;20150;-80
2022/06/27 00:41:23;;;;;;;12.80;4.72;;;;;;;22.71;48.61;99302.78;8468569;27;20069;-82
2022/06/27 00:45:24;;;;;;;8.73;4.50;;;;;;;22.66;48.86;99303.13;8473305;27;20495;-79
2022/06/27 00:49:25;;;;;;;9.20;4.05;;;;;;;22.63;48.93;99306.66;8480485;27;20062;-81
2022/06/27 00:53:28;;;;;;;10.45;4.30;;;;;;;22.55;49.41;99305.00;8466468;27;20430;-80
2022/06/27 00:57:30;;;;;;;7.13;4.50;;;;;;;22.46;49.84;99301.81;8474961;27;20458;-82
2022/06/27 01:01:32;;;;;;;6.95;4.47;;;;;;;22.44;49.74;99298.66;8471437;27;20031;-81
2022/06/27 01:05:33;;;;;;;9.98;4.57;;;;;;;22.38;49.93;99305.66;8468949;27;20125;-81
2022/06/27 01:09:35;;;;;;;6.68;4.75;;;;;;;22.31;50.48;99309.19;8470838;27;20112;-80
2022/06/27 01:13:38;;;;;;;8.15;4.85;;;;;;;22.26;50.44;99310.31;8466996;27;20479;-81
2022/06/27 01:17:39;;;;;;;9.52;4.57;;;;;;;22.22;50.79;99304.00;8478401;27;20040;-81
2022/06/27 01:21:49;;;;;;;15.48;4.90;;;;;;;22.18;50.79;99313.38;8467138;27;20109;-81
2022/06/27 01:25:50;;;;;;;12.07;4.65;;;;;;;22.12;51.06;99315.69;8468800;27;20074;-79
2022/06/27 01:29:51;;;;;;;12.13;4.40;;;;;;;22.02;51.28;99321.91;8490519;27;20074;-79
2022/06/27 01:33:52;;;;;;;9.35;4.50;;;;;;;22.00;51.29;99310.47;8474469;27;20467;-79
2022/06/27 01:37:53;;;;;;;10.93;5.63;;;;;;;21.94;51.47;99301.03;8467258;27;20075;-81
2022/06/27 01:41:56;;;;;;;17.02;4.90;;;;;;;21.89;51.83;99306.81;8462506;27;20051;-79
2022/06/27 01:45:57;;;;;;;7.85;5.00;;;;;;;21.82;52.02;99301.28;8465698;27;20114;-81
2022/06/27 01:49:58;;;;;;;8.68;4.88;;;;;;;21.76;52.11;99297.28;8470461;27;20054;-79
2022/06/27 01:53:59;;;;;;;10.93;4.70;;;;;;;21.68;52.49;99295.66;8474826;27;20067;-80
2022/06/27 01:58:00;;;;;;;8.30;4.97;;;;;;;21.65;52.61;99301.88;8465314;27;20058;-80
2022/06/27 02:02:03;;;;;;;6.03;4.30;;;;;;;21.58;52.72;99301.78;8465108;27;20040;-80
2022/06/27 02:06:04;;;;;;;12.13;5.22;;;;;;;21.53;52.94;99299.41;8456192;27;20491;-80
2022/06/27 02:10:06;;;;;;;9.38;5.30;;;;;;;21.49;53.14;99300.16;8442510;27;20082;-81
2022/06/27 02:14:07;;;;;;;12.07;5.07;;;;;;;21.47;53.27;99302.47;8464908;27;20052;-80
2022/06/27 02:18:08;;;;;;;7.60;4.60;;;;;;;21.43;53.58;99296.16;8453576;27;20055;-82
2022/06/27 02:22:11;;;;;;;8.63;4.80;;;;;;;21.39;53.66;99295.34;8464315;27;20039;-79
2022/06/27 02:26:13;;;;;;;8.77;4.35;;;;;;;21.36;53.80;99293.31;8475863;27;20178;-81
2022/06/27 02:30:14;;;;;;;11.07;5.90;;;;;;;21.34;54.15;99294.88;8462820;27;20405;-80
2022/06/27 02:34:15;;;;;;;9.18;5.00;;;;;;;21.33;54.09;99291.34;8469702;27;20082;-78
2022/06/27 02:38:17;;;;;;;13.60;5.28;;;;;;;21.31;54.24;99293.66;8468215;27;20208;-79
2022/06/27 02:42:20;;;;;;;7.78;5.22;;;;;;;21.28;54.34;99299.91;8461099;27;20044;-80
2022/06/27 02:46:21;;;;;;;14.70;5.50;;;;;;;21.27;54.65;99305.78;8466551;27;20059;-81
2022/06/27 02:50:25;;;;;;;12.77;5.15;;;;;;;21.24;54.85;99307.34;8464889;27;20698;-80
2022/06/27 02:54:41;;;;;;;10.32;4.80;;;;;;;21.23;54.99;99303.00;8467453;27;20069;-81
2022/06/27 02:58:42;;;;;;;11.65;5.30;;;;;;;21.21;55.15;99310.81;8464664;27;20112;-79
2022/06/27 03:02:45;;;;;;;9.02;5.60;;;;;;;21.21;55.09;99305.31;8463649;28;20044;-81
2022/06/27 03:06:49;;;;;;;13.48;5.35;;;;;;;21.20;55.32;99309.25;8465202;27;20406;-81
2022/06/27 03:10:51;;;;;;;7.38;4.80;;;;;;;21.20;55.46;99314.75;8464912;28;20105;-80
2022/06/27 03:14:54;;;;;;;9.35;4.43;;;;;;;21.20;55.65;99314.75;8479639;27;20082;-80
2022/06/27 03:18:55;;;;;;;6.57;4.32;;;;;;;21.17;55.80;99310.00;8470895;27;20077;-80
2022/06/27 03:22:58;;;;;;;10.70;4.60;;;;;;;21.17;56.01;99315.47;8453206;28;20131;-80
2022/06/27 03:26:59;;;;;;;8.02;4.80;;;;;;;21.19;56.00;99313.16;8453063;28;20043;-80
2022/06/27 03:31:01;;;;;;;7.25;4.60;;;;;;;21.19;56.10;99318.66;8394470;28;20132;-82
2022/06/27 03:35:02;;;;;;;7.65;4.50;;;;;;;21.18;56.48;99317.06;8462766;28;20047;-79
2022/06/27 03:39:03;;;;;;;10.38;4.25;;;;;;;21.17;56.63;99320.97;8462222;28;20411;-78
2022/06/27 03:43:04;;;;;;;9.20;4.53;;;;;;;21.16;56.68;99324.88;8462282;28;20071;-80
2022/06/27 03:47:05;;;;;;;11.93;4.93;;;;;;;21.14;56.87;99329.16;8461772;28;20051;-80
2022/06/27 03:51:06;;;;;;;9.63;5.10;;;;;;;21.12;57.47;99329.50;8476263;27;20052;-80
2022/06/27 03:55:08;;;;;;;10.07;4.88;;;;;;;21.07;57.99;99332.59;8473193;27;20469;-80
2022/06/27 03:59:09;;;;;;;7.47;4.80;;;;;;;21.11;57.92;99333.41;8467413;28;20055;-80
2022/06/27 04:03:10;;;;;;;11.65;4.68;;;;;;;21.16;58.07;99338.63;8467120;27;20089;-81
2022/06/27 04:07:11;;;;;;;43.28;5.60;;;;;;;21.17;58.26;99342.16;8466939;28;20059;-79
2022/06/27 04:11:12;;;;;;;19.55;4.50;;;;;;;21.18;58.45;99344.53;8469130;28;20063;-80
2022/06/27 04:15:13;;;;;;;10.77;4.60;;;;;;;21.20;58.44;99353.19;8462731;28;20048;-80
2022/06/27 04:19:14;;;;;;;11.13;4.22;;;;;;;21.23;58.56;99346.94;8460157;28;20101;-80
2022/06/27 04:23:18;;;;;;;12.52;5.07;;;;;;;21.31;58.48;99348.59;8458884;28;20414;-80
2022/06/27 04:27:21;;;;;;;11.88;4.93;;;;;;;21.32;58.80;99347.44;8467198;28;20132;-80
2022/06/27 04:31:22;;;;;;;9.75;4.80;;;;;;;21.37;58.73;99352.59;8442751;28;20113;-79
2022/06/27 04:35:25;;;;;;;15.52;5.30;;;;;;;21.51;58.54;99356.69;8436682;28;20525;-80
2022/06/27 04:39:26;;;;;;;8.55;4.55;;;;;;;21.64;58.15;99347.00;8444262;28;20510;-79
2022/06/27 04:43:27;;;;;;;9.68;4.70;;;;;;;21.68;58.33;99350.63;8436499;28;20040;-81
2022/06/27 04:47:28;;;;;;;7.22;4.05;;;;;;;21.72;58.35;99351.44;8462212;28;20050;-82
2022/06/27 04:51:29;;;;;;;9.68;4.70;;;;;;;21.76;58.62;99346.75;8448102;28;20058;-80
2022/06/27 04:55:31;;;;;;;10.55;4.63;;;;;;;21.85;58.67;99355.47;8455306;27;20662;-81
2022/06/27 04:59:31;;;;;;;14.10;5.30;;;;;;;21.91;58.41;99353.97;8434360;28;20043;-81
2022/06/27 05:03:33;;;;;;;10.45;5.20;;;;;;;22.01;58.42;99347.81;8431849;28;20051;-81
2022/06/27 05:07:37;;;;;;;20.30;5.47;;;;;;;22.08;58.38;99347.91;8452803;28;20473;-80
2022/06/27 05:11:40;;;;;;;10.98;4.68;;;;;;;22.17;58.54;99340.09;8432943;28;20052;-81
2022/06/27 05:15:41;;;;;;;11.35;5.25;;;;;;;22.25;58.61;99336.25;8432119;28;20093;-79
2022/06/27 05:19:42;;;;;;;9.40;4.70;;;;;;;22.31;58.85;99345.72;8465864;27;20079;-80
2022/06/27 05:23:43;;;;;;;9.18;4.38;;;;;;;22.36;59.12;99341.06;8469102;27;20343;-80
2022/06/27 05:27:44;;;;;;;14.73;4.13;;;;;;;22.42;59.06;99345.03;8469557;27;20482;-80
2022/06/27 05:31:45;;;;;;;12.32;4.85;;;;;;;22.50;58.76;99341.16;8475754;27;20040;-80
2022/06/27 05:35:47;;;;;;;12.38;4.78;;;;;;;22.63;59.07;99336.94;8470345;27;20149;-81
2022/06/27 05:39:47;;;;;;;15.48;4.55;;;;;;;22.68;58.67;99342.84;8461563;27;20089;-83
2022/06/27 05:43:51;;;;;;;7.85;4.18;;;;;;;22.80;58.50;99344.53;8474326;27;20064;-82
2022/06/27 05:48:00;;;;;;;12.57;4.57;;;;;;;22.89;58.97;99347.75;8464557;27;20094;-82
2022/06/27 05:52:05;;;;;;;9.73;4.85;;;;;;;22.92;58.54;99346.97;8444076;28;20084;-81
2022/06/27 05:56:08;;;;;;;8.07;4.72;;;;;;;23.02;58.62;99354.47;8446274;28;20036;-82
2022/06/27 06:00:11;;;;;;;15.07;4.80;;;;;;;23.19;58.49;99360.47;8443419;28;20402;-82
2022/06/27 06:04:13;;;;;;;14.68;4.40;;;;;;;23.28;58.41;99363.66;8448098;28;20070;-81
2022/06/27 06:08:15;;;;;;;9.32;4.78;;;;;;;23.38;57.97;99365.66;8446288;28;20051;-80
2022/06/27 06:12:18;;;;;;;13.30;4.50;;;;;;;23.44;57.69;99355.84;8405292;28;20039;-82
2022/06/27 06:16:22;;;;;;;12.60;4.82;;;;;;;23.50;57.23;99354.31;8453840;28;20044;-83
2022/06/27 06:20:27;;;;;;;14.40;4.75;;;;;;;23.60;57.00;99353.56;8435690;28;20778;-82
2022/06/27 06:24:28;;;;;;;9.52;4.90;;;;;;;23.75;57.30;99360.69;8450297;28;20394;-81
2022/06/27 06:28:30;;;;;;;10.70;5.20;;;;;;;23.97;56.94;99356.81;8439004;28;20040;-80
2022/06/27 06:32:35;;;;;;;12.05;4.72;;;;;;;24.19;56.49;99356.84;8435433;28;20058;-80
2022/06/27 06:36:37;;;;;;;8.65;4.50;;;;;;;24.25;55.95;99352.53;8451381;28;20130;-80
2022/06/27 06:40:38;;;;;;;7.13;3.83;;;;;;;24.41;55.40;99352.91;8430297;28;20044;-80
2022/06/27 06:44:39;;;;;;;10.73;4.20;;;;;;;24.59;55.00;99348.16;8442732;28;20048;-83
2022/06/27 06:48:41;;;;;;;9.50;3.90;;;;;;;24.67;54.34;99346.19;8427339;28;20502;-82
2022/06/27 06:52:46;;;;;;;5.95;3.83;;;;;;;24.78;54.39;99349.72;8433638;28;20451;-79
2022/06/27 06:56:49;;;;;;;8.05;4.03;;;;;;;24.88;53.38;99337.09;8435245;28;20048;-79
2022/06/27 07:00:52;;;;;;;8.88;4.18;;;;;;;24.97;53.18;99345.75;8441553;28;20035;-81
2022/06/27 07:04:53;;;;;;;10.55;4.20;;;;;;;25.13;52.95;99348.84;8427053;28;20055;-81
2022/06/27 07:08:57;;;;;;;10.10;3.78;;;;;;;25.32;51.78;99340.09;8436919;28;20130;-81
2022/06/27 07:12:58;;;;;;;9.52;3.55;;;;;;;25.45;51.11;99349.50;8428628;28;20563;-80
2022/06/27 07:17:03;;;;;;;6.43;3.88;;;;;;;25.60;50.20;99351.03;8434209;28;20043;-81
2022/06/27 07:21:06;;;;;;;10.13;3.60;;;;;;;25.79;49.24;99340.66;8407321;28;20051;-82
2022/06/27 07:25:08;;;;;;;11.55;3.67;;;;;;;25.92;48.86;99339.78;8427540;28;20048;-82
2022/06/27 07:29:09;;;;;;;11.80;3.58;;;;;;;26.06;48.59;99341.66;8431978;28;20040;-81
2022/06/27 07:33:11;;;;;;;6.45;3.58;;;;;;;26.18;48.21;99335.63;8432106;28;20044;-80
2022/06/27 07:37:12;;;;;;;12.55;3.58;;;;;;;26.31;48.46;99347.81;8432942;28;20456;-80
2022/06/27 07:41:15;;;;;;;9.13;3.88;;;;;;;26.45;48.06;99339.38;8431604;28;20101;-80
2022/06/27 07:45:18;;;;;;;11.35;3.30;;;;;;;26.64;47.74;99337.25;8449752;28;20056;-82
2022/06/27 07:49:19;;;;;;;7.50;3.05;;;;;;;26.76;47.37;99331.16;8439273;28;20046;-80
2022/06/27 07:53:20;;;;;;;3.35;2.78;;;;;;;26.95;45.70;99333.38;8436119;28;20310;-80
2022/06/27 07:57:21;;;;;;;4.07;2.83;;;;;;;27.11;44.63;99330.81;8425967;28;20052;-80
2022/06/27 08:01:23;;;;;;;7.90;2.60;;;;;;;27.21;44.28;99329.91;8430130;28;20453;-81
2022/06/27 08:05:24;;;;;;;7.78;3.00;;;;;;;27.38;43.09;99316.22;8402774;28;20048;-80
2022/06/27 08:09:26;;;;;;;3.13;2.63;;;;;;;27.48;43.24;99323.63;8445744;28;20052;-80
2022/06/27 08:13:28;;;;;;;5.07;2.95;;;;;;;27.67;42.86;99328.53;8431710;28;20161;-80
2022/06/27 08:17:29;;;;;;;6.45;2.72;;;;;;;27.85;41.69;99323.50;8432362;28;20502;-81
2022/06/27 08:21:31;;;;;;;4.95;2.90;;;;;;;27.95;41.20;99325.34;8441120;28;20043;-81
2022/06/27 08:25:33;;;;;;;7.78;3.00;;;;;;;28.11;41.22;99325.47;8436972;28;20446;-82
2022/06/27 08:29:34;;;;;;;4.18;2.70;;;;;;;28.29;40.57;99335.56;8435893;28;20056;-81
2022/06/27 08:33:35;;;;;;;11.15;3.40;;;;;;;28.39;40.14;99334.59;8447956;28;20044;-85
2022/06/27 08:37:44;;;;;;;4.80;2.88;;;;;;;28.51;40.40;99342.28;8437515;28;20392;-82
2022/06/27 08:41:47;;;;;;;9.27;2.83;;;;;;;28.66;40.80;99338.03;8439366;28;20047;-81
2022/06/27 08:45:51;;;;;;;6.38;3.00;;;;;;;28.84;40.05;99343.31;8431510;28;20048;-80
2022/06/27 08:49:52;;;;;;;8.38;3.40;;;;;;;28.95;40.42;99344.69;8438649;28;20040;-81
2022/06/27 08:53:54;;;;;;;3.75;2.90;;;;;;;29.09;40.11;99331.69;8448840;28;20082;-82
2022/06/27 08:58:05;;;;;;;4.63;2.70;;;;;;;29.20;40.81;99338.63;8440732;28;20560;-82
2022/06/27 09:02:06;;;;;;;13.15;3.00;;;;;;;29.33;40.26;99330.44;8438898;28;20052;-80
2022/06/27 09:06:10;;;;;;;9.57;3.25;;;;;;;29.53;40.34;99336.78;8448247;28;20067;-80
2022/06/27 09:10:36;;;;;;;10.65;3.13;;;;;;;29.70;38.92;99332.81;8436181;28;20109;-80
2022/06/27 09:14:39;;;;;;;6.43;2.92;;;;;;;29.83;38.25;99329.34;8438961;28;20592;-83
2022/06/27 09:18:41;;;;;;;5.45;3.05;;;;;;;29.89;37.95;99333.97;8453805;27;20043;-82
2022/06/27 09:22:45;;;;;;;7.70;2.88;;;;;;;29.92;37.57;99332.34;8431565;28;20048;-80
2022/06/27 09:26:47;;;;;;;9.90;2.92;;;;;;;30.05;36.89;99330.44;8431063;28;20492;-82
2022/06/27 09:30:52;;;;;;;9.45;3.00;;;;;;;30.10;37.46;99336.28;8434591;28;20055;-80
2022/06/27 09:34:53;;;;;;;9.65;2.80;;;;;;;30.19;36.56;99325.28;8432597;28;20089;-82
2022/06/27 09:38:54;;;;;;;8.70;2.70;;;;;;;30.32;35.98;99317.03;8429394;28;20047;-81
2022/06/27 09:42:56;;;;;;;7.53;2.70;;;;;;;30.41;35.53;99325.53;8432507;28;20047;-80
2022/06/27 09:47:02;;;;;;;3.65;2.80;;;;;;;30.54;35.72;99312.50;8431778;28;20316;-82
2022/06/27 09:51:04;;;;;;;3.72;2.70;;;;;;;30.67;35.63;99304.19;8461864;27;20130;-84
2022/06/27 09:55:07;;;;;;;4.75;2.90;;;;;;;30.78;35.70;99303.91;8429343;28;20044;-83
2022/06/27 09:59:11;;;;;;;4.55;3.08;;;;;;;30.92;36.10;99303.53;8434450;28;20031;-82
2022/06/27 10:03:13;;;;;;;8.02;2.90;;;;;;;31.00;36.21;99299.28;8428903;28;20080;-78
2022/06/27 10:07:16;;;;;;;10.80;3.00;;;;;;;31.09;35.45;99291.13;8430481;28;20048;-81
2022/06/27 10:11:18;;;;;;;5.55;2.75;;;;;;;31.18;33.39;99285.66;8433079;28;20495;-83
2022/06/27 10:15:21;;;;;;;3.92;2.90;;;;;;;31.29;33.38;99288.13;8428134;28;20036;-81
2022/06/27 10:19:27;;;;;;;4.18;2.75;;;;;;;31.45;31.68;99274.88;8434174;28;20476;-87
2022/06/27 10:23:32;;;;;;;7.00;3.05;;;;;;;31.58;31.96;99276.91;8445517;28;20461;-82
2022/06/27 10:27:33;;;;;;;6.15;2.92;;;;;;;31.67;32.47;99274.25;8435736;28;20067;-84
2022/06/27 10:31:45;;;;;;;6.85;2.85;;;;;;;31.78;32.72;99277.44;8427188;28;20052;-82
2022/06/27 10:35:55;;;;;;;4.50;2.78;;;;;;;31.83;32.39;99274.13;8429507;28;20040;-82
2022/06/27 10:40:20;;;;;;;7.20;2.85;;;;;;;31.96;31.52;99280.47;8435340;28;20047;-79
2022/06/27 10:44:31;;;;;;;7.47;3.45;;;;;;;32.01;31.90;99277.09;8436053;28;20054;-84
2022/06/27 10:48:34;;;;;;;6.50;3.10;;;;;;;32.09;30.91;99266.47;8437292;28;20047;-82
2022/06/27 10:52:36;;;;;;;4.63;3.15;;;;;;;32.18;31.41;99267.38;8431253;28;20400;-82
2022/06/27 10:56:53;;;;;;;9.45;3.25;;;;;;;32.35;31.87;99256.03;8409424;28;20044;-80
2022/06/27 11:01:15;;;;;;;7.00;3.20;;;;;;;32.50;32.32;99245.91;8434732;28;20097;-83
2022/06/27 11:05:16;;;;;;;7.78;3.30;;;;;;;32.59;31.69;99248.78;8429882;28;20059;-82
2022/06/27 11:09:18;;;;;;;7.53;3.63;;;;;;;32.56;32.28;99238.50;8427922;28;20052;-81
2022/06/27 11:13:51;;;;;;;8.10;4.00;;;;;;;32.75;32.99;99234.63;8431720;28;20040;-80
2022/06/27 11:17:53;;;;;;;7.57;3.53;;;;;;;32.84;32.22;99242.31;8438184;28;20032;-83
2022/06/27 11:21:53;;;;;;;8.30;3.55;;;;;;;32.98;32.38;99234.19;8435133;28;20134;-81
2022/06/27 11:25:57;;;;;;;6.38;3.63;;;;;;;33.09;32.66;99230.97;8444699;28;20142;-81
2022/06/27 11:34:18;;;;;;;5.75;3.67;;;;;;;33.22;31.92;99222.50;8451979;28;20047;-81
2022/06/27 11:38:43;;;;;;;5.32;3.95;;;;;;;33.20;32.16;99225.78;8451505;28;20051;-82
2022/06/27 11:42:44;;;;;;;5.18;3.30;;;;;;;33.29;31.75;99222.25;8358880;28;20060;-83
2022/06/27 11:46:45;;;;;;;5.32;3.90;;;;;;;33.39;31.52;99215.44;8340379;28;20606;-82
2022/06/27 11:50:46;;;;;;;11.43;3.97;;;;;;;33.42;31.99;99226.47;8357821;28;20049;-81
2022/06/27 11:54:51;;;;;;;9.45;3.72;;;;;;;33.55;30.48;99206.78;8365176;28;20052;-82
2022/06/27 11:58:55;;;;;;;5.35;3.80;;;;;;;33.70;31.01;99207.78;8337316;28;20670;-80
2022/06/27 12:03:09;;;;;;;8.80;3.65;;;;;;;33.75;30.27;99209.97;8354841;28;20488;-84
2022/06/27 12:07:10;;;;;;;7.43;3.75;;;;;;;33.98;31.07;99205.03;8356606;28;20048;-84
2022/06/27 12:11:17;;;;;;;6.53;4.20;;;;;;;34.05;30.35;99193.53;8354445;28;20063;-84
2022/06/27 12:15:23;;;;;;;6.90;4.03;;;;;;;34.12;30.56;99187.63;8366411;28;20056;-84
2022/06/27 12:19:26;;;;;;;6.97;4.05;;;;;;;34.29;31.30;99197.31;8402026;28;20048;-82
2022/06/27 12:23:27;;;;;;;5.15;4.00;;;;;;;34.24;30.59;99200.75;8442405;28;20406;-80
2022/06/27 12:27:28;;;;;;;9.88;4.35;;;;;;;34.17;30.87;99201.00;8442373;27;20051;-82
2022/06/27 12:31:35;;;;;;;6.35;4.13;;;;;;;34.37;31.33;99190.13;8442203;28;20054;-81
2022/06/27 12:35:36;;;;;;;8.02;4.10;;;;;;;34.46;31.40;99187.34;8467474;28;20071;-81
2022/06/27 12:39:37;;;;;;;6.28;3.83;;;;;;;34.41;31.72;99187.97;8468175;28;20055;-81
2022/06/27 12:43:42;;;;;;;10.80;3.88;;;;;;;34.41;30.74;99192.78;8468051;28;20423;-81
2022/06/27 12:47:44;;;;;;;4.97;3.80;;;;;;;34.55;31.12;99187.31;8468119;28;20173;-80
2022/06/27 12:51:49;;;;;;;8.32;4.22;;;;;;;34.72;30.69;99174.56;8461321;28;20064;-80
2022/06/27 12:55:50;;;;;;;10.45;4.63;;;;;;;34.87;30.48;99177.47;8467432;28;20044;-80
2022/06/27 12:59:51;;;;;;;9.45;4.15;;;;;;;34.95;30.71;99180.75;8441641;28;20163;-81
2022/06/27 13:03:53;;;;;;;12.38;3.78;;;;;;;35.18;30.33;99171.63;8466733;28;20071;-83
2022/06/27 13:07:54;;;;;;;8.27;4.05;;;;;;;34.59;30.46;99175.94;8466793;28;20116;-82
2022/06/27 13:11:55;;;;;;;8.48;3.83;;;;;;;33.93;31.32;99176.41;8480709;27;20047;-80
2022/06/27 13:15:56;;;;;;;6.47;3.88;;;;;;;33.98;31.28;99165.81;8466675;28;20064;-79
2022/06/27 13:19:57;;;;;;;9.55;4.50;;;;;;;34.62;30.69;99158.97;8458189;28;20052;-80
2022/06/27 13:23:58;;;;;;;12.60;5.07;;;;;;;34.95;30.26;99169.50;8466500;28;20703;-79
2022/06/27 13:28:00;;;;;;;8.02;4.30;;;;;;;35.14;29.67;99159.75;8464001;28;20487;-80
2022/06/27 13:32:02;;;;;;;8.00;4.03;;;;;;;35.21;29.99;99153.84;8450594;28;20505;-80
2022/06/27 13:36:04;;;;;;;8.30;4.05;;;;;;;35.18;29.91;99154.78;8463812;28;20518;-82
2022/06/27 13:40:06;;;;;;;10.85;3.97;;;;;;;36.36;28.70;99150.44;8428998;28;20048;-80
2022/06/27 13:44:08;;;;;;;5.05;3.90;;;;;;;37.64;27.47;99149.78;8466167;28;20087;-81
2022/06/27 13:48:09;;;;;;;8.77;3.28;;;;;;;38.34;25.89;99143.94;8464487;28;20048;-81
2022/06/27 13:52:10;;;;;;;6.03;2.90;;;;;;;38.87;25.05;99151.91;8464488;28;20052;-80
2022/06/27 13:56:11;;;;;;;7.13;3.25;;;;;;;39.64;24.57;99151.75;8446245;28;20158;-82
2022/06/27 14:00:12;;;;;;;5.25;2.53;;;;;;;40.61;22.75;99157.25;8437921;28;20131;-82
2022/06/27 14:04:13;;;;;;;5.00;2.40;;;;;;;40.82;22.07;99145.16;8435158;28;20411;-82
2022/06/27 14:08:15;;;;;;;7.50;2.60;;;;;;;41.30;22.20;99156.22;8440344;28;20052;-81
2022/06/27 14:12:17;;;;;;;6.18;2.65;;;;;;;42.30;21.13;99143.03;8444346;28;20517;-81
2022/06/27 14:16:20;;;;;;;4.65;2.42;;;;;;;42.87;20.33;99157.09;8431641;28;20396;-82
2022/06/27 14:20:21;;;;;;;7.00;2.22;;;;;;;40.87;21.75;99152.13;8445635;28;20047;-79
2022/06/27 14:24:23;;;;;;;3.83;2.38;;;;;;;40.14;21.84;99148.34;8455909;27;20491;-80
2022/06/27 14:28:24;;;;;;;4.35;2.50;;;;;;;40.57;22.30;99151.03;8438107;28;20055;-81
2022/06/27 14:32:25;;;;;;;5.32;2.25;;;;;;;42.02;20.96;99135.44;8455973;28;20047;-81
2022/06/27 14:36:26;;;;;;;3.95;2.30;;;;;;;41.80;21.16;99144.00;8460290;28;20050;-80
2022/06/27 14:40:27;;;;;;;2.53;2.00;;;;;;;42.55;20.44;99145.44;8460451;27;20138;-82
2022/06/27 14:44:28;;;;;;;6.68;2.08;;;;;;;43.31;18.55;99138.09;8435837;28;20526;-85
2022/06/27 14:48:29;;;;;;;5.10;2.00;;;;;;;43.89;19.29;99140.59;8431906;28;20048;-82
2022/06/27 14:52:30;;;;;;;9.82;2.20;;;;;;;43.93;19.06;99138.22;8451414;28;20533;-82
2022/06/27 14:56:31;;;;;;;3.30;2.20;;;;;;;43.30;20.01;99125.22;8439051;28;20056;-80
2022/06/27 15:00:32;;;;;;;5.93;2.13;;;;;;;42.58;20.95;99126.56;8455219;28;20149;-82
2022/06/27 15:04:33;;;;;;;4.68;2.10;;;;;;;42.88;19.88;99123.78;8445598;27;20040;-85
2022/06/27 15:08:35;;;;;;;2.88;1.70;;;;;;;41.77;21.30;99119.53;8450988;28;20056;-81
2022/06/27 15:12:37;;;;;;;2.80;1.70;;;;;;;41.33;21.35;99121.19;8455459;28;20052;-80
2022/06/27 15:16:48;;;;;;;4.22;1.70;;;;;;;41.68;19.73;99125.47;8454615;27;20074;-82
2022/06/27 15:20:50;;;;;;;3.90;1.90;;;;;;;41.66;20.58;99108.25;8441335;27;20073;-79
2022/06/27 15:24:51;;;;;;;4.65;1.83;;;;;;;42.73;18.66;99115.63;8431302;28;20043;-80
2022/06/27 15:28:52;;;;;;;2.65;1.67;;;;;;;42.92;18.82;99102.31;8436397;28;20070;-81
2022/06/27 15:32:53;;;;;;;3.42;1.45;;;;;;;44.09;17.80;99108.78;8437297;28;20052;-81
2022/06/27 15:36:54;;;;;;;3.88;1.70;;;;;;;44.15;17.95;99106.63;8434841;28;20052;-82
2022/06/27 15:40:58;;;;;;;6.18;1.80;;;;;;;43.48;18.43;99118.81;8418379;28;20495;-81
2022/06/27 15:45:02;;;;;;;2.92;1.65;;;;;;;42.47;19.07;99112.47;8429799;28;20499;-80
2022/06/27 15:49:03;;;;;;;9.07;1.90;;;;;;;41.80;19.45;99112.81;8430191;28;20101;-82
2022/06/27 15:53:05;;;;;;;5.80;2.10;;;;;;;40.48;20.54;99116.06;8449667;28;20048;-81
2022/06/27 15:57:06;;;;;;;5.57;2.00;;;;;;;39.49;21.98;99100.28;8456592;28;20052;-81
2022/06/27 16:01:07;;;;;;;4.85;1.70;;;;;;;38.42;22.87;99095.06;8436138;28;20055;-82
2022/06/27 16:05:10;;;;;;;7.32;1.80;;;;;;;37.27;24.00;99114.91;8437087;28;20048;-83
2022/06/27 16:09:14;;;;;;;4.93;2.05;;;;;;;36.85;24.40;99107.59;8451076;28;20052;-80
2022/06/27 16:13:16;;;;;;;6.47;1.90;;;;;;;36.75;24.71;99109.72;8459615;27;20044;-80
2022/06/27 16:17:18;;;;;;;5.15;2.00;;;;;;;36.68;24.60;99104.50;8469480;28;20032;-82
2022/06/27 16:21:20;;;;;;;6.20;1.90;;;;;;;36.90;24.25;99115.34;8468525;28;20147;-81
2022/06/27 16:25:22;;;;;;;2.95;1.80;;;;;;;36.95;24.18;99109.03;8469086;28;20088;-80
2022/06/27 16:29:24;;;;;;;5.55;1.90;;;;;;;37.10;24.10;99118.25;8468927;28;20066;-83
2022/06/27 16:33:27;;;;;;;2.58;1.80;;;;;;;37.35;24.69;99116.03;8455165;28;20124;-82
2022/06/27 16:37:28;;;;;;;4.60;1.90;;;;;;;36.75;25.44;99120.97;8437902;28;20052;-78
2022/06/27 16:43:14;;;;;;;2.88;1.90;;;;;;;36.54;25.69;99127.00;8464069;28;20122;-81
2022/06/27 16:45:53;;;;;;;6.28;1.73;;;;;;;36.11;26.46;99112.38;8464213;28;20055;-81
2022/06/27 16:49:54;;;;;;;10.77;1.73;;;;;;;36.28;26.05;99116.28;8464436;28;20051;-82
2022/06/27 16:53:57;;;;;;;3.83;1.85;;;;;;;35.85;26.91;99117.72;8428166;28;20130;-82
2022/06/27 16:57:59;;;;;;;5.53;1.98;;;;;;;35.68;27.35;99118.66;8464040;28;20142;-82
2022/06/27 17:02:00;;;;;;;3.97;1.70;;;;;;;35.43;27.71;99109.41;8463765;28;20580;-80
2022/06/27 17:06:01;;;;;;;5.43;2.03;;;;;;;35.14;28.75;99120.47;8461674;28;20438;-83
2022/06/27 17:10:03;;;;;;;6.40;1.83;;;;;;;34.56;28.94;99124.38;8438474;27;20151;-81
2022/06/27 17:14:05;;;;;;;2.10;1.63;;;;;;;34.30;29.57;99128.78;8465063;28;20075;-83
2022/06/27 17:18:06;;;;;;;3.10;1.90;;;;;;;34.16;29.24;99126.59;8464732;28;20694;-82
2022/06/27 17:22:08;;;;;;;8.45;2.15;;;;;;;33.92;29.69;99124.41;8464218;28;20059;-83
2022/06/27 17:26:09;;;;;;;5.53;2.08;;;;;;;33.68;30.08;99131.88;8464716;28;20050;-82
2022/06/27 17:30:10;;;;;;;3.10;1.77;;;;;;;33.50;30.64;99132.59;8461471;28;20042;-81
2022/06/27 17:34:11;;;;;;;3.25;1.95;;;;;;;33.30;31.75;99139.84;8457790;28;20134;-80
2022/06/27 17:38:13;;;;;;;3.28;1.92;;;;;;;33.20;31.87;99135.44;8466120;28;20069;-81
2022/06/27 17:42:14;;;;;;;5.05;2.00;;;;;;;33.01;31.91;99146.53;8466828;28;20051;-83
2022/06/27 17:46:15;;;;;;;2.60;1.80;;;;;;;32.80;32.25;99147.34;8466377;28;20052;-82
2022/06/27 17:50:16;;;;;;;6.30;2.00;;;;;;;32.54;32.80;99145.94;8457140;28;20073;-80
2022/06/27 17:54:17;;;;;;;2.88;1.55;;;;;;;32.34;33.18;99142.69;8457938;28;20055;-82
2022/06/27 17:58:18;;;;;;;3.65;2.17;;;;;;;32.19;33.75;99148.81;8459187;28;20044;-80
2022/06/27 18:02:19;;;;;;;3.53;2.17;;;;;;;32.10;33.86;99145.88;8453161;27;20074;-81
2022/06/27 18:06:20;;;;;;;3.25;2.20;;;;;;;31.88;34.60;99150.69;8471852;27;20502;-81
2022/06/27 18:10:21;;;;;;;2.65;2.17;;;;;;;31.64;35.48;99146.69;8469183;27;20040;-80
2022/06/27 18:14:22;;;;;;;7.10;2.50;;;;;;;31.40;36.73;99155.44;8475674;27;20097;-81
2022/06/27 18:18:24;;;;;;;8.65;5.00;;;;;;;31.16;37.32;99151.41;8465502;28;20048;-82
2022/06/27 18:22:25;;;;;;;8.30;3.85;;;;;;;30.97;37.91;99160.75;8451576;28;20110;-80
2022/06/27 18:26:27;;;;;;;7.13;3.72;;;;;;;30.76;38.89;99158.59;8407703;28;20035;-80
2022/06/27 18:30:28;;;;;;;8.80;3.17;;;;;;;30.55;39.57;99166.38;8450125;28;20044;-80
2022/06/27 18:34:29;;;;;;;6.93;2.65;;;;;;;30.33;40.13;99179.31;8445144;28;20139;-81
2022/06/27 18:38:30;;;;;;;5.47;3.08;;;;;;;30.13;40.79;99187.03;8462784;28;20139;-82
2022/06/27 18:42:32;;;;;;;16.80;3.95;;;;;;;29.94;41.28;99176.78;8455570;28;20116;-82
2022/06/27 18:46:33;;;;;;;7.03;2.78;;;;;;;29.75;42.27;99176.44;8463131;28;20051;-81
2022/06/27 18:50:34;;;;;;;8.70;2.80;;;;;;;29.61;42.09;99179.53;8453258;28;20447;-81
2022/06/27 18:54:35;;;;;;;23.08;3.10;;;;;;;29.41;42.69;99176.06;8444650;28;20044;-81
2022/06/27 18:58:37;;;;;;;15.70;3.50;;;;;;;29.17;43.72;99166.28;8458817;28;20066;-82
2022/06/27 19:02:38;;;;;;;8.88;2.72;;;;;;;29.00;43.86;99164.69;8458048;27;20054;-82